createdAt,value
2023-04-13T00:00:21.154Z,993.39
2023-04-13T00:01:21.099Z,993.33
2023-04-13T00:02:21.180Z,993.34
2023-04-13T00:03:21.228Z,993.27
2023-04-13T00:04:21.050Z,993.39
2023-04-13T00:05:21.133Z,993.33
2023-04-13T00:06:21.030Z,993.33
2023-04-13T00:07:21.010Z,993.36
2023-04-13T00:08:20.979Z,993.28
2023-04-13T00:09:20.971Z,993.30
2023-04-13T00:10:20.968Z,993.28
2023-04-13T00:11:20.961Z,993.34
2023-04-13T00:12:20.932Z,993.17
2023-04-13T00:13:20.943Z,993.17
2023-04-13T00:14:20.912Z,993.14
2023-04-13T00:15:20.914Z,993.24
2023-04-13T00:16:20.906Z,993.19
2023-04-13T00:17:20.881Z,993.15
2023-04-13T00:18:20.933Z,993.15
2023-04-13T00:19:20.866Z,993.21
2023-04-13T00:20:20.852Z,993.05
2023-04-13T00:21:20.884Z,993.09
2023-04-13T00:22:20.827Z,993.08
2023-04-13T00:23:20.825Z,993.17
2023-04-13T00:24:20.811Z,993.05
2023-04-13T00:25:20.813Z,993.10
2023-04-13T00:26:20.777Z,993.01
2023-04-13T00:27:20.784Z,993.07
2023-04-13T00:28:20.759Z,993.16
2023-04-13T00:29:20.748Z,993.03
2023-04-13T00:30:20.750Z,993.12
2023-04-13T00:31:20.772Z,993.04
2023-04-13T00:32:20.709Z,993.06
2023-04-13T00:33:20.800Z,993.00
2023-04-13T00:34:20.708Z,993.07
2023-04-13T00:35:20.696Z,993.01
2023-04-13T00:36:20.665Z,993.08
2023-04-13T00:37:20.710Z,993.00
2023-04-13T00:38:20.660Z,993.02
2023-04-13T00:39:20.658Z,993.02
2023-04-13T00:40:20.669Z,993.00
2023-04-13T00:41:20.620Z,993.05
2023-04-13T00:42:20.614Z,992.97
2023-04-13T00:43:20.624Z,993.00
2023-04-13T00:44:20.611Z,993.10
2023-04-13T00:45:20.591Z,992.93
2023-04-13T00:46:20.624Z,993.05
2023-04-13T00:47:20.600Z,992.97
2023-04-13T00:48:20.534Z,993.10
2023-04-13T00:49:20.524Z,993.07
2023-04-13T00:50:20.529Z,993.04
2023-04-13T00:51:20.499Z,992.95
2023-04-13T00:52:20.509Z,993.13
2023-04-13T00:53:20.505Z,993.11
2023-04-13T00:54:20.472Z,992.98
2023-04-13T00:55:20.460Z,993.01
2023-04-13T00:56:20.468Z,992.90
2023-04-13T00:57:20.463Z,992.95
2023-04-13T00:58:20.423Z,992.93
2023-04-13T00:59:20.426Z,993.07
2023-04-13T01:00:20.397Z,992.96
2023-04-13T01:01:20.460Z,992.95
2023-04-13T01:02:20.543Z,993.03
2023-04-13T01:03:20.448Z,992.88
2023-04-13T01:04:20.456Z,993.03
2023-04-13T01:05:20.372Z,992.89
2023-04-13T01:06:20.327Z,992.99
2023-04-13T01:07:20.336Z,993.06
2023-04-13T01:08:20.316Z,992.95
2023-04-13T01:09:20.336Z,992.93
2023-04-13T01:10:20.299Z,992.89
2023-04-13T01:11:20.281Z,992.87
2023-04-13T01:12:20.260Z,992.91
2023-04-13T01:13:20.270Z,992.83
2023-04-13T01:14:20.252Z,992.82
2023-04-13T01:15:20.247Z,992.80
2023-04-13T01:16:20.279Z,992.96
2023-04-13T01:17:41.259Z,992.84
2023-04-13T01:18:20.197Z,992.88
2023-04-13T01:19:47.765Z,992.77
2023-04-13T01:20:20.182Z,992.75
2023-04-13T01:21:20.161Z,992.92
2023-04-13T01:22:20.301Z,992.87
2023-04-13T01:23:20.137Z,992.80
2023-04-13T01:24:20.130Z,992.81
2023-04-13T01:25:20.185Z,992.86
2023-04-13T01:26:20.178Z,992.88
2023-04-13T01:27:20.120Z,992.85
2023-04-13T01:28:20.088Z,992.88
2023-04-13T01:29:20.113Z,992.79
2023-04-13T01:30:20.078Z,992.84
2023-04-13T01:31:20.087Z,992.82
2023-04-13T01:32:20.089Z,993.02
2023-04-13T01:33:20.027Z,993.00
2023-04-13T01:34:20.021Z,992.91
2023-04-13T01:35:20.013Z,992.95
2023-04-13T01:36:20.000Z,992.94
2023-04-13T01:37:20.017Z,993.01
2023-04-13T01:38:19.976Z,993.05
2023-04-13T01:39:19.964Z,993.01
2023-04-13T01:40:19.954Z,993.01
2023-04-13T01:41:19.958Z,992.95
2023-04-13T01:42:19.962Z,992.90
2023-04-13T01:43:19.923Z,992.95
2023-04-13T01:44:19.905Z,992.98
2023-04-13T01:45:19.890Z,992.91
2023-04-13T01:46:20.871Z,993.06
2023-04-13T01:47:19.931Z,993.05
2023-04-13T01:48:19.876Z,992.93
2023-04-13T01:49:19.856Z,992.92
2023-04-13T01:50:19.844Z,992.99
2023-04-13T01:51:19.826Z,993.02
2023-04-13T01:52:19.844Z,992.88
2023-04-13T01:53:19.802Z,992.96
2023-04-13T01:54:19.801Z,992.93
2023-04-13T01:55:19.776Z,992.89
2023-04-13T01:56:19.770Z,992.96
2023-04-13T01:57:19.826Z,992.93
2023-04-13T01:58:19.792Z,992.84
2023-04-13T01:59:19.732Z,992.84
2023-04-13T02:00:19.733Z,992.82
2023-04-13T02:01:19.903Z,992.87
2023-04-13T02:02:19.914Z,992.83
2023-04-13T02:03:19.752Z,992.89
2023-04-13T02:04:19.756Z,992.88
2023-04-13T02:05:19.664Z,992.88
2023-04-13T02:06:19.663Z,992.79
2023-04-13T02:07:19.660Z,992.84
2023-04-13T02:08:19.667Z,992.87
2023-04-13T02:09:19.618Z,992.86
2023-04-13T02:10:19.610Z,992.87
2023-04-13T02:11:19.665Z,992.82
2023-04-13T02:12:19.603Z,992.88
2023-04-13T02:13:19.642Z,992.91
2023-04-13T02:14:19.592Z,992.89
2023-04-13T02:15:19.565Z,992.96
2023-04-13T02:16:19.620Z,992.99
2023-04-13T02:17:19.718Z,992.94
2023-04-13T02:18:19.564Z,993.01
2023-04-13T02:19:19.521Z,993.18
2023-04-13T02:20:19.502Z,992.93
2023-04-13T02:21:19.487Z,993.01
2023-04-13T02:22:19.502Z,993.15
2023-04-13T02:23:19.463Z,993.09
2023-04-13T02:24:19.474Z,992.98
2023-04-13T02:25:19.453Z,992.90
2023-04-13T02:26:19.436Z,992.97
2023-04-13T02:27:19.432Z,992.99
2023-04-13T02:28:19.440Z,992.98
2023-04-13T02:29:19.432Z,992.93
2023-04-13T02:30:19.387Z,992.90
2023-04-13T02:31:19.385Z,992.98
2023-04-13T02:32:19.416Z,993.00
2023-04-13T02:33:19.362Z,992.86
2023-04-13T02:34:19.344Z,992.90
2023-04-13T02:35:19.328Z,992.99
2023-04-13T02:36:19.423Z,992.97
2023-04-13T02:37:19.332Z,992.88
2023-04-13T02:38:19.311Z,992.95
2023-04-13T02:39:19.296Z,992.90
2023-04-13T02:40:19.287Z,992.88
2023-04-13T02:41:19.273Z,992.90
2023-04-13T02:42:19.270Z,992.92
2023-04-13T02:43:19.242Z,992.87
2023-04-13T02:44:19.232Z,992.97
2023-04-13T02:45:19.244Z,992.90
2023-04-13T02:46:19.287Z,992.87
2023-04-13T02:47:19.227Z,992.82
2023-04-13T02:48:19.249Z,992.85
2023-04-13T02:49:19.167Z,992.86
2023-04-13T02:50:19.163Z,992.95
2023-04-13T02:51:19.148Z,992.94
2023-04-13T02:52:19.178Z,992.87
2023-04-13T02:53:19.122Z,992.96
2023-04-13T02:54:19.119Z,992.94
2023-04-13T02:55:19.122Z,992.91
2023-04-13T02:56:19.123Z,992.93
2023-04-13T02:57:19.094Z,992.93
2023-04-13T02:58:19.102Z,992.86
2023-04-13T02:59:19.157Z,992.87
2023-04-13T03:00:19.057Z,992.93
2023-04-13T03:01:19.143Z,992.97
2023-04-13T03:02:19.090Z,993.00
2023-04-13T03:03:19.084Z,992.94
2023-04-13T03:04:19.038Z,993.01
2023-04-13T03:05:19.002Z,992.99
2023-04-13T03:06:19.000Z,993.02
2023-04-13T03:07:18.976Z,992.94
2023-04-13T03:08:19.014Z,993.14
2023-04-13T03:09:18.943Z,993.03
2023-04-13T03:10:18.971Z,993.01
2023-04-13T03:11:18.949Z,992.90
2023-04-13T03:12:18.915Z,993.00
2023-04-13T03:13:18.928Z,992.97
2023-04-13T03:14:18.901Z,993.06
2023-04-13T03:15:18.874Z,993.01
2023-04-13T03:16:18.944Z,992.99
2023-04-13T03:17:19.876Z,992.96
2023-04-13T03:18:18.892Z,993.04
2023-04-13T03:19:18.843Z,993.00
2023-04-13T03:20:18.830Z,993.08
2023-04-13T03:21:18.814Z,993.03
2023-04-13T03:22:18.802Z,992.99
2023-04-13T03:23:18.817Z,992.99
2023-04-13T03:24:18.809Z,993.01
2023-04-13T03:25:18.794Z,993.20
2023-04-13T03:26:18.780Z,993.04
2023-04-13T03:27:18.816Z,993.04
2023-04-13T03:28:18.870Z,993.19
2023-04-13T03:29:18.731Z,993.09
2023-04-13T03:30:18.826Z,993.08
2023-04-13T03:31:18.740Z,993.01
2023-04-13T03:32:18.760Z,993.03
2023-04-13T03:33:18.738Z,993.00
2023-04-13T03:34:18.688Z,992.99
2023-04-13T03:35:18.652Z,993.06
2023-04-13T03:36:18.679Z,993.10
2023-04-13T03:37:18.644Z,993.10
2023-04-13T03:38:18.640Z,993.12
2023-04-13T03:39:18.609Z,993.01
2023-04-13T03:40:18.613Z,993.11
2023-04-13T03:41:18.602Z,993.05
2023-04-13T03:42:18.610Z,993.13
2023-04-13T03:43:18.589Z,993.11
2023-04-13T03:44:18.561Z,993.25
2023-04-13T03:45:18.540Z,993.22
2023-04-13T03:46:18.586Z,993.18
2023-04-13T03:47:18.581Z,993.14
2023-04-13T03:48:18.524Z,993.17
2023-04-13T03:49:18.524Z,993.16
2023-04-13T03:50:18.488Z,993.20
2023-04-13T03:51:18.505Z,993.26
2023-04-13T03:52:18.478Z,993.19
2023-04-13T03:53:18.472Z,993.23
2023-04-13T03:54:18.456Z,993.39
2023-04-13T03:55:18.451Z,993.30
2023-04-13T03:56:18.434Z,993.29
2023-04-13T03:57:18.426Z,993.31
2023-04-13T03:58:18.414Z,993.25
2023-04-13T03:59:18.386Z,993.26
2023-04-13T04:00:18.374Z,993.23
2023-04-13T04:01:18.391Z,993.30
2023-04-13T04:02:18.504Z,993.34
2023-04-13T04:03:18.426Z,993.31
2023-04-13T04:04:18.403Z,993.33
2023-04-13T04:05:18.476Z,993.33
2023-04-13T04:06:18.336Z,993.32
2023-04-13T04:07:18.311Z,993.25
2023-04-13T04:08:18.296Z,993.25
2023-04-13T04:09:18.271Z,993.29
2023-04-13T04:10:18.260Z,993.24
2023-04-13T04:11:18.266Z,993.41
2023-04-13T04:12:18.272Z,993.43
2023-04-13T04:13:18.261Z,993.24
2023-04-13T04:14:18.226Z,993.23
2023-04-13T04:15:18.237Z,993.25
2023-04-13T04:16:18.252Z,993.33
2023-04-13T04:17:18.191Z,993.35
2023-04-13T04:18:18.201Z,993.35
2023-04-13T04:19:18.154Z,993.30
2023-04-13T04:20:18.188Z,993.30
2023-04-13T04:21:18.155Z,993.31
2023-04-13T04:22:18.137Z,993.29
2023-04-13T04:23:19.765Z,993.29
2023-04-13T04:24:18.117Z,993.39
2023-04-13T04:25:18.085Z,993.30
2023-04-13T04:26:18.110Z,993.27
2023-04-13T04:27:18.063Z,993.25
2023-04-13T04:28:18.249Z,993.47
2023-04-13T04:29:18.043Z,993.39
2023-04-13T04:30:18.033Z,993.42
2023-04-13T04:31:18.095Z,993.48
2023-04-13T04:32:18.011Z,993.42
2023-04-13T04:33:18.035Z,993.38
2023-04-13T04:34:18.004Z,993.47
2023-04-13T04:35:17.970Z,993.38
2023-04-13T04:36:17.981Z,993.50
2023-04-13T04:37:20.974Z,993.50
2023-04-13T04:38:17.960Z,993.57
2023-04-13T04:39:17.952Z,993.50
2023-04-13T04:40:17.942Z,993.56
2023-04-13T04:41:17.924Z,993.58
2023-04-13T04:42:17.934Z,993.60
2023-04-13T04:43:17.921Z,993.62
2023-04-13T04:44:17.898Z,993.62
2023-04-13T04:45:17.896Z,993.67
2023-04-13T04:46:17.893Z,993.68
2023-04-13T04:47:17.841Z,993.72
2023-04-13T04:48:17.865Z,993.68
2023-04-13T04:49:17.843Z,993.77
2023-04-13T04:50:17.862Z,993.82
2023-04-13T04:51:17.806Z,993.80
2023-04-13T04:52:17.801Z,993.89
2023-04-13T04:53:17.821Z,993.94
2023-04-13T04:54:17.788Z,993.96
2023-04-13T04:55:17.764Z,993.88
2023-04-13T04:56:17.751Z,993.91
2023-04-13T04:57:17.740Z,993.96
2023-04-13T04:58:17.736Z,994.05
2023-04-13T04:59:17.735Z,993.94
2023-04-13T05:00:17.714Z,994.02
2023-04-13T05:01:17.725Z,993.97
2023-04-13T05:02:17.882Z,994.01
2023-04-13T05:03:17.711Z,994.00
2023-04-13T05:04:17.681Z,994.03
2023-04-13T05:05:17.691Z,994.04
2023-04-13T05:06:17.651Z,994.04
2023-04-13T05:07:17.659Z,994.08
2023-04-13T05:08:17.610Z,994.08
2023-04-13T05:09:17.632Z,994.03
2023-04-13T05:10:17.610Z,994.07
2023-04-13T05:11:17.589Z,994.08
2023-04-13T05:12:17.581Z,994.11
2023-04-13T05:13:17.581Z,994.13
2023-04-13T05:14:17.573Z,994.12
2023-04-13T05:15:17.549Z,994.12
2023-04-13T05:16:17.610Z,994.11
2023-04-13T05:17:17.531Z,994.13
2023-04-13T05:18:17.510Z,994.20
2023-04-13T05:19:17.877Z,994.19
2023-04-13T05:20:17.491Z,994.20
2023-04-13T05:21:17.476Z,994.15
2023-04-13T05:22:17.490Z,994.24
2023-04-13T05:23:17.457Z,994.19
2023-04-13T05:24:17.451Z,994.25
2023-04-13T05:25:17.452Z,994.28
2023-04-13T05:26:17.423Z,994.27
2023-04-13T05:27:17.466Z,994.28
2023-04-13T05:28:17.395Z,994.38
2023-04-13T05:29:17.393Z,994.34
2023-04-13T05:30:17.362Z,994.43
2023-04-13T05:31:17.373Z,994.41
2023-04-13T05:32:17.378Z,994.42
2023-04-13T05:33:17.357Z,994.40
2023-04-13T05:34:17.359Z,994.43
2023-04-13T05:35:17.341Z,994.55
2023-04-13T05:36:17.313Z,994.46
2023-04-13T05:37:17.567Z,994.56
2023-04-13T05:38:17.272Z,994.55
2023-04-13T05:39:17.285Z,994.58
2023-04-13T05:40:17.264Z,994.63
2023-04-13T05:41:17.261Z,994.62
2023-04-13T05:42:17.237Z,994.61
2023-04-13T05:43:17.233Z,994.68
2023-04-13T05:44:17.241Z,994.67
2023-04-13T05:45:17.440Z,994.70
2023-04-13T05:46:17.222Z,994.71
2023-04-13T05:47:17.194Z,994.71
2023-04-13T05:48:17.164Z,994.72
2023-04-13T05:49:17.170Z,994.76
2023-04-13T05:50:17.132Z,994.77
2023-04-13T05:51:17.127Z,994.73
2023-04-13T05:52:17.126Z,994.83
2023-04-13T05:53:17.106Z,994.85
2023-04-13T05:54:17.139Z,994.83
2023-04-13T05:55:17.094Z,994.87
2023-04-13T05:56:17.086Z,994.91
2023-04-13T05:57:17.097Z,995.00
2023-04-13T05:58:17.051Z,994.95
2023-04-13T05:59:17.039Z,995.04
2023-04-13T06:00:17.035Z,994.96
2023-04-13T06:01:17.045Z,994.99
2023-04-13T06:02:17.152Z,995.01
2023-04-13T06:03:17.243Z,995.05
2023-04-13T06:04:17.255Z,995.11
2023-04-13T06:05:17.027Z,995.14
2023-04-13T06:06:16.968Z,995.18
2023-04-13T06:07:16.950Z,995.20
2023-04-13T06:08:17.070Z,995.25
2023-04-13T06:09:16.958Z,995.25
2023-04-13T06:10:16.965Z,995.27
2023-04-13T06:11:16.923Z,995.30
2023-04-13T06:12:16.907Z,995.32
2023-04-13T06:13:16.986Z,995.29
2023-04-13T06:14:16.889Z,995.38
2023-04-13T06:15:16.872Z,995.36
2023-04-13T06:16:16.934Z,995.42
2023-04-13T06:17:16.976Z,995.40
2023-04-13T06:18:16.846Z,995.42
2023-04-13T06:19:16.833Z,995.43
2023-04-13T06:20:16.807Z,995.41
2023-04-13T06:21:16.800Z,995.42
2023-04-13T06:22:16.900Z,995.46
2023-04-13T06:23:16.778Z,995.50
2023-04-13T06:24:16.748Z,995.51
2023-04-13T06:25:16.851Z,995.41
2023-04-13T06:26:16.738Z,995.52
2023-04-13T06:27:16.735Z,995.55
2023-04-13T06:28:16.725Z,995.59
2023-04-13T06:29:16.750Z,995.52
2023-04-13T06:30:16.847Z,995.59
2023-04-13T06:31:16.801Z,995.67
2023-04-13T06:32:16.723Z,995.64
2023-04-13T06:33:16.676Z,995.66
2023-04-13T06:34:16.650Z,995.64
2023-04-13T06:35:16.637Z,995.66
2023-04-13T06:36:16.612Z,995.62
2023-04-13T06:37:16.616Z,995.63
2023-04-13T06:38:16.604Z,995.68
2023-04-13T06:39:16.605Z,995.69
2023-04-13T06:40:16.582Z,995.73
2023-04-13T06:41:16.564Z,995.75
2023-04-13T06:42:16.802Z,995.76
2023-04-13T06:43:29.206Z,995.74
2023-04-13T06:44:18.864Z,995.76
2023-04-13T06:45:16.561Z,995.77
2023-04-13T06:46:19.099Z,995.89
2023-04-13T06:47:16.598Z,995.85
2023-04-13T06:48:16.481Z,995.83
2023-04-13T06:49:16.557Z,995.85
2023-04-13T06:50:16.459Z,995.92
2023-04-13T06:51:16.463Z,995.95
2023-04-13T06:52:16.445Z,995.92
2023-04-13T06:53:16.432Z,995.95
2023-04-13T06:54:16.479Z,995.94
2023-04-13T06:55:16.423Z,995.95
2023-04-13T06:56:16.393Z,995.94
2023-04-13T06:57:16.398Z,995.99
2023-04-13T06:58:16.394Z,995.97
2023-04-13T06:59:16.445Z,995.96
2023-04-13T07:00:28.774Z,995.97
2023-04-13T07:01:17.459Z,995.96
2023-04-13T07:02:16.402Z,996.01
2023-04-13T07:03:16.488Z,995.95
2023-04-13T07:04:16.412Z,995.93
2023-04-13T07:05:16.367Z,995.98
2023-04-13T07:06:16.291Z,995.88
2023-04-13T07:07:16.282Z,995.85
2023-04-13T07:08:16.254Z,995.91
2023-04-13T07:09:16.298Z,996.00
2023-04-13T07:10:16.238Z,995.88
2023-04-13T07:11:16.241Z,995.97
2023-04-13T07:12:16.224Z,995.96
2023-04-13T07:13:16.229Z,995.97
2023-04-13T07:14:16.219Z,996.01
2023-04-13T07:15:16.186Z,996.00
2023-04-13T07:16:16.306Z,996.01
2023-04-13T07:17:16.337Z,996.02
2023-04-13T07:18:16.143Z,996.01
2023-04-13T07:19:16.212Z,996.14
2023-04-13T07:20:16.144Z,996.09
2023-04-13T07:21:16.138Z,996.08
2023-04-13T07:22:16.114Z,996.09
2023-04-13T07:23:16.109Z,996.00
2023-04-13T07:24:16.114Z,996.09
2023-04-13T07:25:16.580Z,996.11
2023-04-13T07:26:16.062Z,996.18
2023-04-13T07:27:16.049Z,996.23
2023-04-13T07:28:16.033Z,996.18
2023-04-13T07:29:16.055Z,996.16
2023-04-13T07:30:16.025Z,996.22
2023-04-13T07:31:16.016Z,996.22
2023-04-13T07:32:15.997Z,996.22
2023-04-13T07:33:16.070Z,996.30
2023-04-13T07:34:15.991Z,996.29
2023-04-13T07:35:15.969Z,996.22
2023-04-13T07:36:15.945Z,996.25
2023-04-13T07:37:15.952Z,996.34
2023-04-13T07:38:15.943Z,996.25
2023-04-13T07:39:15.980Z,996.20
2023-04-13T07:40:15.899Z,996.26
2023-04-13T07:41:15.887Z,996.25
2023-04-13T07:42:15.875Z,996.31
2023-04-13T07:43:15.881Z,996.32
2023-04-13T07:44:15.882Z,996.24
2023-04-13T07:45:15.920Z,996.31
2023-04-13T07:46:15.914Z,996.36
2023-04-13T07:47:15.827Z,996.35
2023-04-13T07:48:15.818Z,996.40
2023-04-13T07:49:15.879Z,996.36
2023-04-13T07:50:15.784Z,996.40
2023-04-13T07:51:15.774Z,996.44
2023-04-13T07:52:15.760Z,996.42
2023-04-13T07:53:15.758Z,996.44
2023-04-13T07:54:16.810Z,996.39
2023-04-13T07:55:15.734Z,996.43
2023-04-13T07:56:15.738Z,996.45
2023-04-13T07:57:15.713Z,996.47
2023-04-13T07:58:15.706Z,996.51
2023-04-13T07:59:15.715Z,996.58
2023-04-13T08:00:15.667Z,996.50
2023-04-13T08:01:15.676Z,996.59
2023-04-13T08:02:15.688Z,996.58
2023-04-13T08:03:15.784Z,996.56
2023-04-13T08:04:15.898Z,996.64
2023-04-13T08:05:15.908Z,996.64
2023-04-13T08:06:15.619Z,996.63
2023-04-13T08:07:15.628Z,996.58
2023-04-13T08:08:15.597Z,996.61
2023-04-13T08:09:15.597Z,996.61
2023-04-13T08:10:15.569Z,996.68
2023-04-13T08:11:15.552Z,996.68
2023-04-13T08:12:15.553Z,996.73
2023-04-13T08:13:15.545Z,996.74
2023-04-13T08:14:15.544Z,996.77
2023-04-13T08:15:15.518Z,996.75
2023-04-13T08:16:15.532Z,996.82
2023-04-13T08:17:15.525Z,996.78
2023-04-13T08:18:15.480Z,996.70
2023-04-13T08:19:15.477Z,996.75
2023-04-13T08:20:15.471Z,996.74
2023-04-13T08:21:15.463Z,996.78
2023-04-13T08:22:15.444Z,996.81
2023-04-13T08:23:15.429Z,996.83
2023-04-13T08:24:15.425Z,996.86
2023-04-13T08:25:15.418Z,996.86
2023-04-13T08:26:15.408Z,996.89
2023-04-13T08:27:15.389Z,996.89
2023-04-13T08:28:15.376Z,996.98
2023-04-13T08:29:15.476Z,996.96
2023-04-13T08:30:15.366Z,996.93
2023-04-13T08:31:15.330Z,996.95
2023-04-13T08:32:15.529Z,996.97
2023-04-13T08:33:15.319Z,996.97
2023-04-13T08:34:15.315Z,996.96
2023-04-13T08:35:15.326Z,996.96
2023-04-13T08:36:15.269Z,996.98
2023-04-13T08:37:15.310Z,997.05
2023-04-13T08:38:15.255Z,997.03
2023-04-13T08:39:15.250Z,997.04
2023-04-13T08:40:15.257Z,997.01
2023-04-13T08:41:15.233Z,997.07
2023-04-13T08:42:15.218Z,997.04
2023-04-13T08:43:15.213Z,997.00
2023-04-13T08:44:15.196Z,997.06
2023-04-13T08:45:15.186Z,997.07
2023-04-13T08:46:15.179Z,997.08
2023-04-13T08:47:15.163Z,997.05
2023-04-13T08:48:15.194Z,997.07
2023-04-13T08:49:15.139Z,997.09
2023-04-13T08:50:15.137Z,997.13
2023-04-13T08:51:15.105Z,997.14
2023-04-13T08:52:16.886Z,997.17
2023-04-13T08:53:15.609Z,997.14
2023-04-13T08:54:15.077Z,997.17
2023-04-13T08:55:15.090Z,997.13
2023-04-13T08:56:15.061Z,997.14
2023-04-13T08:57:15.039Z,997.17
2023-04-13T08:58:15.038Z,997.21
2023-04-13T08:59:15.061Z,997.24
2023-04-13T09:00:15.028Z,997.23
2023-04-13T09:01:15.047Z,997.20
2023-04-13T09:02:15.055Z,997.22
2023-04-13T09:03:15.093Z,997.25
2023-04-13T09:04:15.206Z,997.21
2023-04-13T09:05:15.130Z,997.24
2023-04-13T09:06:14.967Z,997.24
2023-04-13T09:07:14.920Z,997.24
2023-04-13T09:08:14.919Z,997.25
2023-04-13T09:09:14.994Z,997.29
2023-04-13T09:10:14.917Z,997.29
2023-04-13T09:11:14.878Z,997.26
2023-04-13T09:12:14.874Z,997.27
2023-04-13T09:13:14.862Z,997.29
2023-04-13T09:14:14.893Z,997.34
2023-04-13T09:15:14.849Z,997.35
2023-04-13T09:16:14.814Z,997.40
2023-04-13T09:17:14.855Z,997.38
2023-04-13T09:18:14.937Z,997.43
2023-04-13T09:19:14.788Z,997.41
2023-04-13T09:20:14.822Z,997.41
2023-04-13T09:21:14.785Z,997.45
2023-04-13T09:22:14.751Z,997.49
2023-04-13T09:23:14.794Z,997.44
2023-04-13T09:24:14.740Z,997.54
2023-04-13T09:25:14.835Z,997.52
2023-04-13T09:26:14.773Z,997.53
2023-04-13T09:27:14.699Z,997.56
2023-04-13T09:28:14.683Z,997.57
2023-04-13T09:29:14.770Z,997.59
2023-04-13T09:30:14.693Z,997.61
2023-04-13T09:31:14.699Z,997.64
2023-04-13T09:32:14.650Z,997.58
2023-04-13T09:33:14.632Z,997.63
2023-04-13T09:34:14.618Z,997.64
2023-04-13T09:35:14.633Z,997.70
2023-04-13T09:36:14.593Z,997.67
2023-04-13T09:37:14.601Z,997.68
2023-04-13T09:38:14.587Z,997.72
2023-04-13T09:39:14.590Z,997.69
2023-04-13T09:40:14.627Z,997.65
2023-04-13T09:41:14.615Z,997.64
2023-04-13T09:42:14.552Z,997.74
2023-04-13T09:43:14.538Z,997.70
2023-04-13T09:44:14.514Z,997.72
2023-04-13T09:45:14.545Z,997.71
2023-04-13T09:46:14.562Z,997.72
2023-04-13T09:47:14.483Z,997.68
2023-04-13T09:48:14.465Z,997.68
2023-04-13T09:49:14.476Z,997.69
2023-04-13T09:50:14.508Z,997.66
2023-04-13T09:51:14.441Z,997.63
2023-04-13T09:52:14.433Z,997.67
2023-04-13T09:53:14.425Z,997.68
2023-04-13T09:54:14.411Z,997.74
2023-04-13T09:55:14.419Z,997.75
2023-04-13T09:56:14.394Z,997.71
2023-04-13T09:57:14.403Z,997.72
2023-04-13T09:58:14.365Z,997.75
2023-04-13T09:59:14.360Z,997.70
2023-04-13T10:00:14.377Z,997.72
2023-04-13T10:01:14.357Z,997.75
2023-04-13T10:02:14.402Z,997.72
2023-04-13T10:03:14.408Z,997.72
2023-04-13T10:04:14.326Z,997.81
2023-04-13T10:05:14.386Z,997.88
2023-04-13T10:06:14.263Z,997.87
2023-04-13T10:07:14.250Z,997.83
2023-04-13T10:08:16.424Z,997.84
2023-04-13T10:09:14.224Z,997.89
2023-04-13T10:10:14.289Z,997.86
2023-04-13T10:11:14.220Z,997.89
2023-04-13T10:12:14.209Z,997.90
2023-04-13T10:13:21.580Z,997.92
2023-04-13T10:14:15.177Z,997.92
2023-04-13T10:15:14.178Z,997.96
2023-04-13T10:16:14.175Z,998.04
2023-04-13T10:17:14.166Z,998.04
2023-04-13T10:18:14.216Z,998.03
2023-04-13T10:19:14.111Z,998.03
2023-04-13T10:20:14.134Z,997.98
2023-04-13T10:21:14.103Z,998.00
2023-04-13T10:22:14.084Z,998.07
2023-04-13T10:23:14.071Z,998.13
2023-04-13T10:24:14.078Z,998.11
2023-04-13T10:25:25.229Z,998.11
2023-04-13T10:26:15.056Z,998.14
2023-04-13T10:27:14.037Z,998.16
2023-04-13T10:28:14.026Z,998.12
2023-04-13T10:29:14.051Z,998.14
2023-04-13T10:30:14.013Z,998.12
2023-04-13T10:31:14.062Z,998.17
2023-04-13T10:32:13.979Z,998.14
2023-04-13T10:33:13.974Z,998.18
2023-04-13T10:34:14.049Z,998.20
2023-04-13T10:35:13.947Z,998.17
2023-04-13T10:36:13.949Z,998.07
2023-04-13T10:37:13.936Z,998.11
2023-04-13T10:38:13.915Z,998.19
2023-04-13T10:39:13.888Z,998.11
2023-04-13T10:40:13.891Z,998.10
2023-04-13T10:41:13.886Z,998.14
2023-04-13T10:42:15.410Z,998.15
2023-04-13T10:43:13.857Z,998.14
2023-04-13T10:44:13.845Z,998.13
2023-04-13T10:45:13.838Z,998.07
2023-04-13T10:46:14.050Z,998.00
2023-04-13T10:47:13.903Z,998.03
2023-04-13T10:48:13.839Z,998.04
2023-04-13T10:49:13.777Z,998.05
2023-04-13T10:50:13.778Z,998.00
2023-04-13T10:51:13.755Z,997.96
2023-04-13T10:52:13.773Z,998.01
2023-04-13T10:53:13.745Z,997.99
2023-04-13T10:54:13.735Z,998.09
2023-04-13T10:55:13.728Z,998.04
2023-04-13T10:56:13.713Z,998.12
2023-04-13T10:57:13.741Z,998.06
2023-04-13T10:58:13.700Z,998.12
2023-04-13T10:59:13.668Z,998.12
2023-04-13T11:00:13.656Z,998.13
2023-04-13T11:01:13.742Z,998.15
2023-04-13T11:02:13.747Z,998.10
2023-04-13T11:03:13.816Z,998.15
2023-04-13T11:04:16.897Z,998.12
2023-04-13T11:05:13.611Z,998.14
2023-04-13T11:06:13.858Z,998.14
2023-04-13T11:07:13.580Z,998.14
2023-04-13T11:08:13.580Z,998.15
2023-04-13T11:09:16.598Z,998.09
2023-04-13T11:10:13.567Z,998.16
2023-04-13T11:11:15.158Z,998.10
2023-04-13T11:12:13.557Z,998.11
2023-04-13T11:13:13.521Z,998.01
2023-04-13T11:14:13.512Z,998.10
2023-04-13T11:15:13.741Z,998.16
2023-04-13T11:16:13.532Z,998.11
2023-04-13T11:17:13.728Z,998.11
2023-04-13T11:18:13.509Z,998.13
2023-04-13T11:19:13.464Z,998.11
2023-04-13T11:20:13.507Z,998.08
2023-04-13T11:21:13.437Z,998.05
2023-04-13T11:22:13.575Z,998.05
2023-04-13T11:23:13.412Z,998.22
2023-04-13T11:24:13.386Z,998.23
2023-04-13T11:25:13.376Z,998.17
2023-04-13T11:26:13.380Z,998.22
2023-04-13T11:27:13.367Z,998.26
2023-04-13T11:28:13.385Z,998.25
2023-04-13T11:29:13.331Z,998.23
2023-04-13T11:30:13.403Z,998.22
2023-04-13T11:31:13.332Z,998.29
2023-04-13T11:32:13.409Z,998.27
2023-04-13T11:33:13.476Z,998.28
2023-04-13T11:34:13.298Z,998.29
2023-04-13T11:35:13.272Z,998.27
2023-04-13T11:36:13.298Z,998.36
2023-04-13T11:37:13.255Z,998.38
2023-04-13T11:38:13.237Z,998.44
2023-04-13T11:39:13.214Z,998.48
2023-04-13T11:40:13.253Z,998.49
2023-04-13T11:41:17.019Z,998.46
2023-04-13T11:42:13.191Z,998.49
2023-04-13T11:43:13.187Z,998.49
2023-04-13T11:44:13.163Z,998.53
2023-04-13T11:45:13.161Z,998.47
2023-04-13T11:46:13.216Z,998.49
2023-04-13T11:47:13.167Z,998.50
2023-04-13T11:48:13.137Z,998.49
2023-04-13T11:49:13.158Z,998.52
2023-04-13T11:50:15.325Z,998.54
2023-04-13T11:51:13.106Z,998.59
2023-04-13T11:52:13.086Z,998.57
2023-04-13T11:53:13.070Z,998.54
2023-04-13T11:54:13.049Z,998.51
2023-04-13T11:55:22.498Z,998.52
2023-04-13T11:56:14.072Z,998.61
2023-04-13T11:57:13.061Z,998.59
2023-04-13T11:58:13.021Z,998.60
2023-04-13T11:59:13.022Z,998.61
2023-04-13T12:00:12.997Z,998.65
2023-04-13T12:01:15.381Z,998.59
2023-04-13T12:02:21.778Z,998.61
2023-04-13T12:03:34.430Z,998.63
2023-04-13T12:04:16.328Z,998.55
2023-04-13T12:05:13.173Z,998.63
2023-04-13T12:06:13.537Z,998.50
2023-04-13T12:07:14.067Z,998.55
2023-04-13T12:08:13.418Z,998.66
2023-04-13T12:09:15.744Z,998.65
2023-04-13T12:11:38.974Z,998.63
2023-04-13T12:14:17.797Z,998.62
2023-04-13T12:15:29.969Z,998.59
2023-04-13T12:17:37.559Z,998.62
2023-04-13T12:18:15.831Z,998.56
2023-04-13T12:19:14.050Z,998.55
2023-04-13T12:20:12.846Z,998.51
2023-04-13T12:21:13.457Z,998.58
2023-04-13T12:22:14.311Z,998.59
2023-04-13T12:23:21.928Z,998.62
2023-04-13T12:24:15.395Z,998.63
2023-04-13T12:25:14.453Z,998.66
2023-04-13T12:28:12.685Z,998.69
2023-04-13T12:29:12.663Z,998.65
2023-04-13T12:30:12.683Z,998.69
2023-04-13T12:31:12.754Z,998.73
2023-04-13T12:32:12.621Z,998.73
2023-04-13T12:33:12.617Z,998.73
2023-04-13T12:34:12.597Z,998.77